Terminal Aerodrome Forecast
Issued by NWS

Home | Current Version | Previous Version | Text Only | Print | Product List | Glossary On
Versions: 1 2 3 4 5 6 7 8 9 10 11 12 13 14 15
000
FTUS45 KGJT 302320
TAFASE
TAF
KASE 302320Z 0100/0124 28006KT P6SM VCTS BKN090CB
     FM010200 21005KT P6SM BKN090
     FM010400 20005KT P6SM SCT080
     FM011500 VRB03KT P6SM SCT090
     FM011900 31007KT P6SM SCT110=

USA.gov is the U.S. government's official web portal to all federal, state and local government web resources and services.